sensor_id;sensor_type;location;lat;lon;timestamp;P1;durP1;ratioP1;P2;durP2;ratioP2
3591;SDS011;1810;48.720;9.094;2023-07-16T00:01:26;77.68;;;74.22;;
3591;SDS011;1810;48.720;9.094;2023-07-16T00:03:55;89.28;;;84.90;;
3591;SDS011;1810;48.720;9.094;2023-07-16T00:06:23;77.43;;;73.78;;
3591;SDS011;1810;48.720;9.094;2023-07-16T00:08:53;78.32;;;74.20;;
3591;SDS011;1810;48.720;9.094;2023-07-16T00:11:22;72.82;;;69.25;;
3591;SDS011;1810;48.720;9.094;2023-07-16T00:13:50;79.90;;;76.25;;
3591;SDS011;1810;48.720;9.094;2023-07-16T00:16:19;68.97;;;65.80;;
3591;SDS011;1810;48.720;9.094;2023-07-16T00:18:48;77.53;;;74.05;;
3591;SDS011;1810;48.720;9.094;2023-07-16T00:21:16;70.22;;;67.05;;
3591;SDS011;1810;48.720;9.094;2023-07-16T00:23:45;77.57;;;74.03;;
3591;SDS011;1810;48.720;9.094;2023-07-16T00:26:15;69.53;;;66.35;;
3591;SDS011;1810;48.720;9.094;2023-07-16T00:28:43;88.45;;;84.38;;
3591;SDS011;1810;48.720;9.094;2023-07-16T00:31:12;92.57;;;88.60;;
3591;SDS011;1810;48.720;9.094;2023-07-16T00:33:41;87.90;;;83.93;;
3591;SDS011;1810;48.720;9.094;2023-07-16T00:36:09;77.75;;;74.30;;
3591;SDS011;1810;48.720;9.094;2023-07-16T00:38:38;69.57;;;66.32;;
3591;SDS011;1810;48.720;9.094;2023-07-16T00:41:07;120.63;;;115.40;;
3591;SDS011;1810;48.720;9.094;2023-07-16T00:43:37;91.20;;;87.15;;
3591;SDS011;1810;48.720;9.094;2023-07-16T00:46:06;93.53;;;89.55;;
3591;SDS011;1810;48.720;9.094;2023-07-16T00:48:35;105.75;;;101.15;;
3591;SDS011;1810;48.720;9.094;2023-07-16T00:51:03;74.40;;;71.05;;
3591;SDS011;1810;48.720;9.094;2023-07-16T00:53:32;77.80;;;74.28;;
3591;SDS011;1810;48.720;9.094;2023-07-16T00:56:01;111.03;;;106.20;;
3591;SDS011;1810;48.720;9.094;2023-07-16T00:58:29;101.13;;;96.85;;
3591;SDS011;1810;48.720;9.094;2023-07-16T01:00:59;95.60;;;91.50;;
3591;SDS011;1810;48.720;9.094;2023-07-16T01:03:28;88.05;;;84.28;;
3591;SDS011;1810;48.720;9.094;2023-07-16T01:05:57;77.07;;;73.60;;
3591;SDS011;1810;48.720;9.094;2023-07-16T01:08:30;90.53;;;86.70;;
3591;SDS011;1810;48.720;9.094;2023-07-16T01:11:00;120.63;;;115.60;;
3591;SDS011;1810;48.720;9.094;2023-07-16T01:13:32;86.90;;;83.18;;
3591;SDS011;1810;48.720;9.094;2023-07-16T01:16:02;74.03;;;70.78;;
3591;SDS011;1810;48.720;9.094;2023-07-16T01:18:31;113.28;;;108.57;;
3591;SDS011;1810;48.720;9.094;2023-07-16T01:20:59;143.20;;;137.40;;
3591;SDS011;1810;48.720;9.094;2023-07-16T01:23:35;90.28;;;86.45;;
3591;SDS011;1810;48.720;9.094;2023-07-16T01:26:15;135.73;;;130.07;;
3591;SDS011;1810;48.720;9.094;2023-07-16T01:29:17;162.95;;;156.38;;
3591;SDS011;1810;48.720;9.094;2023-07-16T01:31:50;111.80;;;107.10;;
3591;SDS011;1810;48.720;9.094;2023-07-16T01:34:19;105.55;;;101.15;;
3591;SDS011;1810;48.720;9.094;2023-07-16T01:36:48;133.63;;;128.20;;
3591;SDS011;1810;48.720;9.094;2023-07-16T01:39:17;131.23;;;125.90;;
3591;SDS011;1810;48.720;9.094;2023-07-16T01:41:46;162.70;;;156.15;;
3591;SDS011;1810;48.720;9.094;2023-07-16T01:44:16;96.18;;;92.07;;
3591;SDS011;1810;48.720;9.094;2023-07-16T01:46:45;97.15;;;93.13;;
3591;SDS011;1810;48.720;9.094;2023-07-16T01:49:24;140.88;;;135.13;;
3591;SDS011;1810;48.720;9.094;2023-07-16T01:51:52;151.95;;;145.95;;
3591;SDS011;1810;48.720;9.094;2023-07-16T01:54:21;143.32;;;137.25;;
3591;SDS011;1810;48.720;9.094;2023-07-16T01:56:49;128.20;;;122.93;;
3591;SDS011;1810;48.720;9.094;2023-07-16T01:59:19;144.52;;;138.63;;
3591;SDS011;1810;48.720;9.094;2023-07-16T02:01:47;143.98;;;138.23;;
3591;SDS011;1810;48.720;9.094;2023-07-16T02:04:16;114.07;;;109.35;;
3591;SDS011;1810;48.720;9.094;2023-07-16T02:06:45;183.10;;;175.82;;
3591;SDS011;1810;48.720;9.094;2023-07-16T02:09:14;141.05;;;135.30;;
3591;SDS011;1810;48.720;9.094;2023-07-16T02:11:42;153.25;;;147.13;;
3591;SDS011;1810;48.720;9.094;2023-07-16T02:14:11;118.93;;;114.10;;
3591;SDS011;1810;48.720;9.094;2023-07-16T02:16:41;122.63;;;117.60;;
3591;SDS011;1810;48.720;9.094;2023-07-16T02:19:10;146.23;;;139.85;;
3591;SDS011;1810;48.720;9.094;2023-07-16T02:21:38;185.52;;;178.07;;
3591;SDS011;1810;48.720;9.094;2023-07-16T02:24:07;175.82;;;168.85;;
3591;SDS011;1810;48.720;9.094;2023-07-16T02:26:35;154.18;;;147.75;;
3591;SDS011;1810;48.720;9.094;2023-07-16T02:29:04;170.93;;;164.13;;
3591;SDS011;1810;48.720;9.094;2023-07-16T02:31:35;175.35;;;168.38;;
3591;SDS011;1810;48.720;9.094;2023-07-16T02:34:05;184.02;;;176.70;;
3591;SDS011;1810;48.720;9.094;2023-07-16T02:36:34;178.93;;;171.82;;
3591;SDS011;1810;48.720;9.094;2023-07-16T02:39:03;192.80;;;185.27;;
3591;SDS011;1810;48.720;9.094;2023-07-16T02:41:31;183.38;;;175.75;;
3591;SDS011;1810;48.720;9.094;2023-07-16T02:44:00;178.93;;;171.82;;
3591;SDS011;1810;48.720;9.094;2023-07-16T02:46:30;187.85;;;180.30;;
3591;SDS011;1810;48.720;9.094;2023-07-16T02:48:58;194.90;;;187.10;;
3591;SDS011;1810;48.720;9.094;2023-07-16T02:51:29;194.55;;;186.93;;
3591;SDS011;1810;48.720;9.094;2023-07-16T02:53:57;185.82;;;178.23;;
3591;SDS011;1810;48.720;9.094;2023-07-16T02:56:26;186.52;;;179.20;;
3591;SDS011;1810;48.720;9.094;2023-07-16T02:58:54;195.98;;;188.18;;
3591;SDS011;1810;48.720;9.094;2023-07-16T03:01:23;196.95;;;189.13;;
3591;SDS011;1810;48.720;9.094;2023-07-16T03:03:51;173.95;;;167.10;;
3591;SDS011;1810;48.720;9.094;2023-07-16T03:06:20;179.30;;;172.10;;
3591;SDS011;1810;48.720;9.094;2023-07-16T03:08:50;189.30;;;181.73;;
3591;SDS011;1810;48.720;9.094;2023-07-16T03:11:18;186.00;;;178.68;;
3591;SDS011;1810;48.720;9.094;2023-07-16T03:13:47;189.30;;;181.75;;
3591;SDS011;1810;48.720;9.094;2023-07-16T03:16:16;186.05;;;178.68;;
3591;SDS011;1810;48.720;9.094;2023-07-16T03:18:45;191.77;;;184.10;;
3591;SDS011;1810;48.720;9.094;2023-07-16T03:21:14;168.40;;;161.65;;
3591;SDS011;1810;48.720;9.094;2023-07-16T03:23:42;196.80;;;188.48;;
3591;SDS011;1810;48.720;9.094;2023-07-16T03:26:12;190.80;;;183.30;;
3591;SDS011;1810;48.720;9.094;2023-07-16T03:28:41;191.93;;;184.25;;
3591;SDS011;1810;48.720;9.094;2023-07-16T03:31:10;189.43;;;181.88;;
3591;SDS011;1810;48.720;9.094;2023-07-16T03:33:38;194.18;;;186.35;;
3591;SDS011;1810;48.720;9.094;2023-07-16T03:36:07;199.38;;;191.32;;
3591;SDS011;1810;48.720;9.094;2023-07-16T03:38:35;190.27;;;182.73;;
3591;SDS011;1810;48.720;9.094;2023-07-16T03:41:04;188.63;;;181.18;;
3591;SDS011;1810;48.720;9.094;2023-07-16T03:43:34;174.77;;;167.50;;
3591;SDS011;1810;48.720;9.094;2023-07-16T03:46:02;155.48;;;149.27;;
3591;SDS011;1810;48.720;9.094;2023-07-16T03:48:33;143.68;;;137.93;;
3591;SDS011;1810;48.720;9.094;2023-07-16T03:51:02;148.10;;;142.10;;
3591;SDS011;1810;48.720;9.094;2023-07-16T03:53:30;180.75;;;173.52;;
3591;SDS011;1810;48.720;9.094;2023-07-16T03:55:59;192.32;;;184.70;;
3591;SDS011;1810;48.720;9.094;2023-07-16T03:58:27;189.45;;;181.93;;
3591;SDS011;1810;48.720;9.094;2023-07-16T04:00:57;177.30;;;170.20;;
3591;SDS011;1810;48.720;9.094;2023-07-16T04:03:25;151.68;;;145.48;;
3591;SDS011;1810;48.720;9.094;2023-07-16T04:06:00;165.32;;;158.77;;
3591;SDS011;1810;48.720;9.094;2023-07-16T04:08:29;161.30;;;154.82;;
3591;SDS011;1810;48.720;9.094;2023-07-16T04:10:58;175.27;;;168.18;;
3591;SDS011;1810;48.720;9.094;2023-07-16T04:13:26;194.10;;;186.40;;
3591;SDS011;1810;48.720;9.094;2023-07-16T04:15:55;173.57;;;166.70;;
3591;SDS011;1810;48.720;9.094;2023-07-16T04:18:25;191.95;;;184.30;;
3591;SDS011;1810;48.720;9.094;2023-07-16T04:20:53;191.32;;;183.48;;
3591;SDS011;1810;48.720;9.094;2023-07-16T04:23:22;188.13;;;180.63;;
3591;SDS011;1810;48.720;9.094;2023-07-16T04:25:51;180.00;;;172.80;;
3591;SDS011;1810;48.720;9.094;2023-07-16T04:28:20;141.52;;;135.75;;
3591;SDS011;1810;48.720;9.094;2023-07-16T04:30:49;161.25;;;154.82;;
3591;SDS011;1810;48.720;9.094;2023-07-16T04:33:19;157.32;;;150.82;;
3591;SDS011;1810;48.720;9.094;2023-07-16T04:35:47;187.32;;;179.95;;
3591;SDS011;1810;48.720;9.094;2023-07-16T04:38:16;196.35;;;188.48;;
3591;SDS011;1810;48.720;9.094;2023-07-16T04:40:45;186.95;;;179.60;;
3591;SDS011;1810;48.720;9.094;2023-07-16T04:43:13;194.07;;;186.27;;
3591;SDS011;1810;48.720;9.094;2023-07-16T04:45:43;193.93;;;186.23;;
3591;SDS011;1810;48.720;9.094;2023-07-16T04:48:13;177.68;;;170.48;;
3591;SDS011;1810;48.720;9.094;2023-07-16T04:50:43;200.18;;;192.15;;
3591;SDS011;1810;48.720;9.094;2023-07-16T04:53:11;247.48;;;237.52;;
3591;SDS011;1810;48.720;9.094;2023-07-16T04:55:39;197.95;;;190.00;;
3591;SDS011;1810;48.720;9.094;2023-07-16T04:58:09;179.88;;;172.50;;
3591;SDS011;1810;48.720;9.094;2023-07-16T05:00:38;186.48;;;179.10;;
3591;SDS011;1810;48.720;9.094;2023-07-16T05:03:07;182.45;;;175.07;;
3591;SDS011;1810;48.720;9.094;2023-07-16T05:05:35;185.93;;;178.27;;
3591;SDS011;1810;48.720;9.094;2023-07-16T05:08:05;198.07;;;190.15;;
3591;SDS011;1810;48.720;9.094;2023-07-16T05:10:34;188.88;;;181.30;;
3591;SDS011;1810;48.720;9.094;2023-07-16T05:13:02;220.02;;;211.32;;
3591;SDS011;1810;48.720;9.094;2023-07-16T05:15:31;192.13;;;184.43;;
3591;SDS011;1810;48.720;9.094;2023-07-16T05:18:00;180.57;;;173.32;;
3591;SDS011;1810;48.720;9.094;2023-07-16T05:20:29;217.07;;;207.82;;
3591;SDS011;1810;48.720;9.094;2023-07-16T05:22:58;190.80;;;182.93;;
3591;SDS011;1810;48.720;9.094;2023-07-16T05:25:28;193.05;;;185.20;;
3591;SDS011;1810;48.720;9.094;2023-07-16T05:27:58;197.73;;;189.63;;
3591;SDS011;1810;48.720;9.094;2023-07-16T05:30:26;192.65;;;184.80;;
3591;SDS011;1810;48.720;9.094;2023-07-16T05:32:56;209.70;;;201.20;;
3591;SDS011;1810;48.720;9.094;2023-07-16T05:35:25;218.70;;;209.82;;
3591;SDS011;1810;48.720;9.094;2023-07-16T05:37:53;204.77;;;196.52;;
3591;SDS011;1810;48.720;9.094;2023-07-16T05:40:31;169.93;;;163.18;;
3591;SDS011;1810;48.720;9.094;2023-07-16T05:43:01;171.05;;;164.18;;
3591;SDS011;1810;48.720;9.094;2023-07-16T05:45:30;178.82;;;171.48;;
3591;SDS011;1810;48.720;9.094;2023-07-16T05:47:58;307.70;;;294.73;;
3591;SDS011;1810;48.720;9.094;2023-07-16T05:50:27;318.23;;;304.92;;
3591;SDS011;1810;48.720;9.094;2023-07-16T05:52:56;319.33;;;305.88;;
3591;SDS011;1810;48.720;9.094;2023-07-16T05:55:25;361.42;;;345.10;;
3591;SDS011;1810;48.720;9.094;2023-07-16T05:57:55;333.05;;;318.83;;
3591;SDS011;1810;48.720;9.094;2023-07-16T06:00:23;336.75;;;322.38;;
3591;SDS011;1810;48.720;9.094;2023-07-16T06:02:52;325.73;;;311.88;;
3591;SDS011;1810;48.720;9.094;2023-07-16T06:05:21;324.65;;;310.90;;
3591;SDS011;1810;48.720;9.094;2023-07-16T06:07:50;338.77;;;324.27;;
3591;SDS011;1810;48.720;9.094;2023-07-16T06:10:20;359.58;;;343.65;;
3591;SDS011;1810;48.720;9.094;2023-07-16T06:13:06;341.77;;;327.00;;
3591;SDS011;1810;48.720;9.094;2023-07-16T06:15:36;309.58;;;296.52;;
3591;SDS011;1810;48.720;9.094;2023-07-16T06:18:04;308.17;;;295.15;;
3591;SDS011;1810;48.720;9.094;2023-07-16T06:20:33;314.30;;;300.92;;
3591;SDS011;1810;48.720;9.094;2023-07-16T06:23:02;325.63;;;310.95;;
3591;SDS011;1810;48.720;9.094;2023-07-16T06:25:31;270.95;;;259.73;;
3591;SDS011;1810;48.720;9.094;2023-07-16T06:28:08;279.40;;;267.85;;
3591;SDS011;1810;48.720;9.094;2023-07-16T06:30:40;265.52;;;254.68;;
3591;SDS011;1810;48.720;9.094;2023-07-16T06:33:09;290.48;;;278.42;;
3591;SDS011;1810;48.720;9.094;2023-07-16T06:35:43;303.85;;;291.05;;
3591;SDS011;1810;48.720;9.094;2023-07-16T06:38:13;309.10;;;295.92;;
3591;SDS011;1810;48.720;9.094;2023-07-16T06:40:45;310.88;;;297.92;;
3591;SDS011;1810;48.720;9.094;2023-07-16T06:43:19;311.13;;;298.20;;
3591;SDS011;1810;48.720;9.094;2023-07-16T06:45:51;337.77;;;323.15;;
3591;SDS011;1810;48.720;9.094;2023-07-16T06:48:22;415.73;;;396.47;;
3591;SDS011;1810;48.720;9.094;2023-07-16T06:50:51;405.27;;;386.95;;
3591;SDS011;1810;48.720;9.094;2023-07-16T06:53:20;469.95;;;447.60;;
3591;SDS011;1810;48.720;9.094;2023-07-16T06:55:50;470.10;;;447.65;;
3591;SDS011;1810;48.720;9.094;2023-07-16T06:58:23;482.35;;;459.33;;
3591;SDS011;1810;48.720;9.094;2023-07-16T07:00:59;467.92;;;445.75;;
3591;SDS011;1810;48.720;9.094;2023-07-16T07:03:28;504.63;;;480.08;;
3591;SDS011;1810;48.720;9.094;2023-07-16T07:06:03;519.50;;;493.35;;
3591;SDS011;1810;48.720;9.094;2023-07-16T07:08:31;545.55;;;517.55;;
3591;SDS011;1810;48.720;9.094;2023-07-16T07:11:00;510.63;;;485.20;;
3591;SDS011;1810;48.720;9.094;2023-07-16T07:13:30;514.08;;;488.52;;
3591;SDS011;1810;48.720;9.094;2023-07-16T07:15:59;495.23;;;471.00;;
3591;SDS011;1810;48.720;9.094;2023-07-16T07:18:28;499.15;;;474.98;;
3591;SDS011;1810;48.720;9.094;2023-07-16T07:20:56;520.83;;;494.73;;
3591;SDS011;1810;48.720;9.094;2023-07-16T07:23:25;554.13;;;525.20;;
3591;SDS011;1810;48.720;9.094;2023-07-16T07:25:53;501.92;;;477.17;;
3591;SDS011;1810;48.720;9.094;2023-07-16T07:28:22;492.77;;;468.70;;
3591;SDS011;1810;48.720;9.094;2023-07-16T07:30:52;534.97;;;508.05;;
3591;SDS011;1810;48.720;9.094;2023-07-16T07:33:21;575.67;;;545.08;;
3591;SDS011;1810;48.720;9.094;2023-07-16T07:35:52;534.97;;;507.63;;
3591;SDS011;1810;48.720;9.094;2023-07-16T07:38:22;510.70;;;485.15;;
3591;SDS011;1810;48.720;9.094;2023-07-16T07:40:50;544.47;;;516.72;;
3591;SDS011;1810;48.720;9.094;2023-07-16T07:43:19;507.08;;;482.25;;
3591;SDS011;1810;48.720;9.094;2023-07-16T07:45:48;514.17;;;488.63;;
3591;SDS011;1810;48.720;9.094;2023-07-16T07:48:19;552.05;;;523.67;;
3591;SDS011;1810;48.720;9.094;2023-07-16T07:50:48;518.80;;;493.00;;
3591;SDS011;1810;48.720;9.094;2023-07-16T07:53:18;545.50;;;517.70;;
3591;SDS011;1810;48.720;9.094;2023-07-16T07:55:48;515.50;;;489.98;;
3591;SDS011;1810;48.720;9.094;2023-07-16T07:58:17;510.08;;;485.00;;
3591;SDS011;1810;48.720;9.094;2023-07-16T08:00:46;505.17;;;480.08;;
3591;SDS011;1810;48.720;9.094;2023-07-16T08:03:15;582.42;;;551.30;;
3591;SDS011;1810;48.720;9.094;2023-07-16T08:05:45;556.35;;;527.67;;
3591;SDS011;1810;48.720;9.094;2023-07-16T08:08:16;551.60;;;523.55;;
3591;SDS011;1810;48.720;9.094;2023-07-16T08:10:45;545.50;;;517.30;;
3591;SDS011;1810;48.720;9.094;2023-07-16T08:13:14;581.65;;;550.95;;
3591;SDS011;1810;48.720;9.094;2023-07-16T08:15:42;604.70;;;572.20;;
3591;SDS011;1810;48.720;9.094;2023-07-16T08:18:11;557.00;;;528.35;;
3591;SDS011;1810;48.720;9.094;2023-07-16T08:20:40;519.78;;;493.83;;
3591;SDS011;1810;48.720;9.094;2023-07-16T08:23:10;542.15;;;514.45;;
3591;SDS011;1810;48.720;9.094;2023-07-16T08:25:39;523.15;;;497.08;;
3591;SDS011;1810;48.720;9.094;2023-07-16T08:28:08;529.47;;;502.75;;
3591;SDS011;1810;48.720;9.094;2023-07-16T08:30:38;558.33;;;529.08;;
3591;SDS011;1810;48.720;9.094;2023-07-16T08:33:06;553.72;;;525.72;;
3591;SDS011;1810;48.720;9.094;2023-07-16T08:35:36;512.17;;;486.70;;
3591;SDS011;1810;48.720;9.094;2023-07-16T08:38:04;529.38;;;502.98;;
3591;SDS011;1810;48.720;9.094;2023-07-16T08:40:37;500.17;;;475.67;;
3591;SDS011;1810;48.720;9.094;2023-07-16T08:43:08;480.35;;;457.25;;
3591;SDS011;1810;48.720;9.094;2023-07-16T08:45:41;505.92;;;480.67;;
3591;SDS011;1810;48.720;9.094;2023-07-16T08:48:11;436.83;;;416.38;;
3591;SDS011;1810;48.720;9.094;2023-07-16T08:50:45;456.48;;;434.48;;
3591;SDS011;1810;48.720;9.094;2023-07-16T08:53:45;447.55;;;426.42;;
3591;SDS011;1810;48.720;9.094;2023-07-16T08:56:19;438.13;;;417.52;;
3591;SDS011;1810;48.720;9.094;2023-07-16T08:58:54;439.52;;;418.75;;
3591;SDS011;1810;48.720;9.094;2023-07-16T09:01:23;514.03;;;487.65;;
3591;SDS011;1810;48.720;9.094;2023-07-16T09:03:52;426.98;;;407.05;;
3591;SDS011;1810;48.720;9.094;2023-07-16T09:06:22;424.38;;;404.45;;
3591;SDS011;1810;48.720;9.094;2023-07-16T09:08:51;450.80;;;429.50;;
3591;SDS011;1810;48.720;9.094;2023-07-16T09:11:26;440.45;;;419.70;;
3591;SDS011;1810;48.720;9.094;2023-07-16T09:13:57;428.42;;;408.63;;
3591;SDS011;1810;48.720;9.094;2023-07-16T09:16:32;451.40;;;430.00;;
3591;SDS011;1810;48.720;9.094;2023-07-16T09:19:05;474.83;;;452.15;;
3591;SDS011;1810;48.720;9.094;2023-07-16T09:21:39;433.65;;;413.58;;
3591;SDS011;1810;48.720;9.094;2023-07-16T09:24:08;440.73;;;420.13;;
3591;SDS011;1810;48.720;9.094;2023-07-16T09:26:38;428.95;;;409.13;;
3591;SDS011;1810;48.720;9.094;2023-07-16T09:29:09;450.20;;;429.00;;
3591;SDS011;1810;48.720;9.094;2023-07-16T09:31:37;521.72;;;495.23;;
3591;SDS011;1810;48.720;9.094;2023-07-16T09:34:06;412.20;;;393.27;;
3591;SDS011;1810;48.720;9.094;2023-07-16T09:36:37;435.35;;;415.00;;
3591;SDS011;1810;48.720;9.094;2023-07-16T09:39:06;430.70;;;410.65;;
3591;SDS011;1810;48.720;9.094;2023-07-16T09:41:35;417.67;;;398.20;;
3591;SDS011;1810;48.720;9.094;2023-07-16T09:44:06;448.52;;;427.42;;
3591;SDS011;1810;48.720;9.094;2023-07-16T09:46:35;457.58;;;435.77;;
3591;SDS011;1810;48.720;9.094;2023-07-16T09:49:04;427.25;;;407.55;;
3591;SDS011;1810;48.720;9.094;2023-07-16T09:51:32;441.48;;;420.60;;
3591;SDS011;1810;48.720;9.094;2023-07-16T09:54:04;435.98;;;415.90;;
3591;SDS011;1810;48.720;9.094;2023-07-16T09:56:34;437.40;;;416.90;;
3591;SDS011;1810;48.720;9.094;2023-07-16T09:59:08;456.63;;;435.17;;
3591;SDS011;1810;48.720;9.094;2023-07-16T10:01:39;439.27;;;418.77;;
3591;SDS011;1810;48.720;9.094;2023-07-16T10:04:14;475.30;;;452.50;;
3591;SDS011;1810;48.720;9.094;2023-07-16T10:06:50;434.52;;;414.30;;
3591;SDS011;1810;48.720;9.094;2023-07-16T10:09:32;430.25;;;410.08;;
3591;SDS011;1810;48.720;9.094;2023-07-16T10:12:11;417.13;;;397.63;;
3591;SDS011;1810;48.720;9.094;2023-07-16T10:14:43;436.08;;;415.70;;
3591;SDS011;1810;48.720;9.094;2023-07-16T10:17:16;436.83;;;416.52;;
3591;SDS011;1810;48.720;9.094;2023-07-16T10:19:56;548.15;;;518.40;;
3591;SDS011;1810;48.720;9.094;2023-07-16T10:22:35;477.02;;;453.92;;
3591;SDS011;1810;48.720;9.094;2023-07-16T10:25:08;432.15;;;412.05;;
3591;SDS011;1810;48.720;9.094;2023-07-16T10:27:47;435.63;;;415.25;;
3591;SDS011;1810;48.720;9.094;2023-07-16T10:30:20;462.58;;;440.48;;
3591;SDS011;1810;48.720;9.094;2023-07-16T10:32:50;448.90;;;427.30;;
3591;SDS011;1810;48.720;9.094;2023-07-16T10:35:20;430.20;;;410.10;;
3591;SDS011;1810;48.720;9.094;2023-07-16T10:37:48;445.55;;;424.45;;
3591;SDS011;1810;48.720;9.094;2023-07-16T10:40:17;456.88;;;435.38;;
3591;SDS011;1810;48.720;9.094;2023-07-16T10:42:45;505.10;;;480.20;;
3591;SDS011;1810;48.720;9.094;2023-07-16T10:45:14;485.15;;;461.77;;
3591;SDS011;1810;48.720;9.094;2023-07-16T10:47:52;460.83;;;438.92;;
3591;SDS011;1810;48.720;9.094;2023-07-16T10:50:24;526.05;;;499.38;;
3591;SDS011;1810;48.720;9.094;2023-07-16T10:52:53;491.42;;;467.30;;
3591;SDS011;1810;48.720;9.094;2023-07-16T10:55:23;475.23;;;451.67;;
3591;SDS011;1810;48.720;9.094;2023-07-16T10:57:54;549.25;;;520.58;;
3591;SDS011;1810;48.720;9.094;2023-07-16T11:00:26;522.60;;;496.58;;
3591;SDS011;1810;48.720;9.094;2023-07-16T11:02:56;516.25;;;490.40;;
3591;SDS011;1810;48.720;9.094;2023-07-16T11:05:25;475.17;;;452.17;;
3591;SDS011;1810;48.720;9.094;2023-07-16T11:07:54;509.75;;;484.50;;
3591;SDS011;1810;48.720;9.094;2023-07-16T11:10:23;459.70;;;437.58;;
3591;SDS011;1810;48.720;9.094;2023-07-16T11:12:56;498.88;;;474.10;;
3591;SDS011;1810;48.720;9.094;2023-07-16T11:15:31;447.10;;;426.13;;
3591;SDS011;1810;48.720;9.094;2023-07-16T11:18:02;465.20;;;442.63;;
3591;SDS011;1810;48.720;9.094;2023-07-16T11:20:31;436.83;;;416.15;;
3591;SDS011;1810;48.720;9.094;2023-07-16T11:23:00;451.88;;;430.35;;
3591;SDS011;1810;48.720;9.094;2023-07-16T11:25:29;445.98;;;425.00;;
3591;SDS011;1810;48.720;9.094;2023-07-16T11:27:58;426.90;;;407.10;;
3591;SDS011;1810;48.720;9.094;2023-07-16T11:30:31;430.20;;;410.23;;
3591;SDS011;1810;48.720;9.094;2023-07-16T11:33:03;435.23;;;414.83;;
3591;SDS011;1810;48.720;9.094;2023-07-16T11:35:47;457.02;;;435.38;;
3591;SDS011;1810;48.720;9.094;2023-07-16T11:38:17;450.02;;;428.58;;
3591;SDS011;1810;48.720;9.094;2023-07-16T11:40:47;451.50;;;430.08;;
3591;SDS011;1810;48.720;9.094;2023-07-16T11:43:35;485.17;;;461.45;;
3591;SDS011;1810;48.720;9.094;2023-07-16T11:46:14;436.75;;;416.23;;
3591;SDS011;1810;48.720;9.094;2023-07-16T11:48:46;426.83;;;406.67;;
3591;SDS011;1810;48.720;9.094;2023-07-16T11:51:18;415.27;;;395.95;;
3591;SDS011;1810;48.720;9.094;2023-07-16T11:53:49;426.40;;;406.65;;
3591;SDS011;1810;48.720;9.094;2023-07-16T11:56:18;472.88;;;450.08;;
3591;SDS011;1810;48.720;9.094;2023-07-16T11:58:57;453.67;;;432.23;;
3591;SDS011;1810;48.720;9.094;2023-07-16T12:01:26;464.70;;;442.27;;
3591;SDS011;1810;48.720;9.094;2023-07-16T12:03:56;484.10;;;460.35;;
3591;SDS011;1810;48.720;9.094;2023-07-16T12:06:24;469.73;;;446.98;;
3591;SDS011;1810;48.720;9.094;2023-07-16T12:08:53;484.83;;;460.92;;
3591;SDS011;1810;48.720;9.094;2023-07-16T12:11:22;479.52;;;456.13;;
3591;SDS011;1810;48.720;9.094;2023-07-16T12:13:51;534.33;;;507.17;;
3591;SDS011;1810;48.720;9.094;2023-07-16T12:16:20;466.00;;;443.50;;
3591;SDS011;1810;48.720;9.094;2023-07-16T12:18:48;553.63;;;524.95;;
3591;SDS011;1810;48.720;9.094;2023-07-16T12:21:19;526.33;;;499.08;;
3591;SDS011;1810;48.720;9.094;2023-07-16T12:23:50;487.70;;;463.95;;
3591;SDS011;1810;48.720;9.094;2023-07-16T12:26:18;576.83;;;545.67;;
3591;SDS011;1810;48.720;9.094;2023-07-16T12:28:57;481.02;;;457.73;;
3591;SDS011;1810;48.720;9.094;2023-07-16T12:31:31;475.88;;;452.70;;
3591;SDS011;1810;48.720;9.094;2023-07-16T12:34:00;466.65;;;444.27;;
3591;SDS011;1810;48.720;9.094;2023-07-16T12:36:32;463.45;;;440.92;;
3591;SDS011;1810;48.720;9.094;2023-07-16T12:39:00;458.63;;;436.45;;
3591;SDS011;1810;48.720;9.094;2023-07-16T12:41:29;527.17;;;500.25;;
3591;SDS011;1810;48.720;9.094;2023-07-16T12:43:57;521.85;;;495.20;;
3591;SDS011;1810;48.720;9.094;2023-07-16T12:46:26;472.42;;;449.55;;
3591;SDS011;1810;48.720;9.094;2023-07-16T12:48:54;487.50;;;463.67;;
3591;SDS011;1810;48.720;9.094;2023-07-16T12:51:23;512.22;;;486.52;;
3591;SDS011;1810;48.720;9.094;2023-07-16T12:53:53;496.25;;;471.10;;
3591;SDS011;1810;48.720;9.094;2023-07-16T12:56:22;467.67;;;444.98;;
3591;SDS011;1810;48.720;9.094;2023-07-16T12:58:50;481.98;;;458.30;;
3591;SDS011;1810;48.720;9.094;2023-07-16T13:01:19;459.63;;;437.63;;
3591;SDS011;1810;48.720;9.094;2023-07-16T13:03:47;482.05;;;458.55;;
3591;SDS011;1810;48.720;9.094;2023-07-16T13:06:16;463.67;;;441.17;;
3591;SDS011;1810;48.720;9.094;2023-07-16T13:08:45;432.75;;;412.60;;
3591;SDS011;1810;48.720;9.094;2023-07-16T13:11:14;465.50;;;443.08;;
3591;SDS011;1810;48.720;9.094;2023-07-16T13:13:43;453.58;;;432.08;;
3591;SDS011;1810;48.720;9.094;2023-07-16T13:16:12;430.83;;;410.88;;
3591;SDS011;1810;48.720;9.094;2023-07-16T13:18:41;449.80;;;428.25;;
3591;SDS011;1810;48.720;9.094;2023-07-16T13:21:09;458.90;;;436.23;;
3591;SDS011;1810;48.720;9.094;2023-07-16T13:23:38;441.83;;;420.83;;
3591;SDS011;1810;48.720;9.094;2023-07-16T13:26:06;428.95;;;409.05;;
3591;SDS011;1810;48.720;9.094;2023-07-16T13:28:36;432.10;;;411.80;;
3591;SDS011;1810;48.720;9.094;2023-07-16T13:31:05;448.02;;;426.83;;
3591;SDS011;1810;48.720;9.094;2023-07-16T13:33:34;427.98;;;407.90;;
3591;SDS011;1810;48.720;9.094;2023-07-16T13:36:03;446.23;;;425.27;;
3591;SDS011;1810;48.720;9.094;2023-07-16T13:38:32;460.63;;;438.05;;
3591;SDS011;1810;48.720;9.094;2023-07-16T13:41:01;453.58;;;431.92;;
3591;SDS011;1810;48.720;9.094;2023-07-16T13:43:30;446.73;;;425.13;;
3591;SDS011;1810;48.720;9.094;2023-07-16T13:46:00;488.80;;;464.77;;
3591;SDS011;1810;48.720;9.094;2023-07-16T13:48:32;467.98;;;445.30;;
3591;SDS011;1810;48.720;9.094;2023-07-16T13:51:24;486.15;;;462.27;;
3591;SDS011;1810;48.720;9.094;2023-07-16T13:53:53;485.25;;;461.67;;
3591;SDS011;1810;48.720;9.094;2023-07-16T13:56:21;477.55;;;454.15;;
3591;SDS011;1810;48.720;9.094;2023-07-16T13:58:50;473.73;;;450.67;;
3591;SDS011;1810;48.720;9.094;2023-07-16T14:01:22;490.85;;;466.75;;
3591;SDS011;1810;48.720;9.094;2023-07-16T14:03:52;501.25;;;476.25;;
3591;SDS011;1810;48.720;9.094;2023-07-16T14:06:22;542.55;;;514.78;;
3591;SDS011;1810;48.720;9.094;2023-07-16T14:08:52;501.15;;;476.30;;
3591;SDS011;1810;48.720;9.094;2023-07-16T14:11:34;518.05;;;492.08;;
3591;SDS011;1810;48.720;9.094;2023-07-16T14:14:05;497.08;;;472.38;;
3591;SDS011;1810;48.720;9.094;2023-07-16T14:16:39;521.17;;;494.33;;
3591;SDS011;1810;48.720;9.094;2023-07-16T14:19:08;491.40;;;467.27;;
3591;SDS011;1810;48.720;9.094;2023-07-16T14:21:38;483.75;;;460.00;;
3591;SDS011;1810;48.720;9.094;2023-07-16T14:24:07;499.95;;;474.83;;
3591;SDS011;1810;48.720;9.094;2023-07-16T14:26:36;468.02;;;445.42;;
3591;SDS011;1810;48.720;9.094;2023-07-16T14:29:05;483.90;;;460.40;;
3591;SDS011;1810;48.720;9.094;2023-07-16T14:31:35;469.70;;;447.05;;
3591;SDS011;1810;48.720;9.094;2023-07-16T14:34:10;466.05;;;443.77;;
3591;SDS011;1810;48.720;9.094;2023-07-16T14:36:41;460.77;;;438.73;;
3591;SDS011;1810;48.720;9.094;2023-07-16T14:39:25;467.53;;;445.00;;
3591;SDS011;1810;48.720;9.094;2023-07-16T14:41:55;454.15;;;432.35;;